This is the latest recevied weather packets stored in our database for station/object DH9NFM-12. If no packets are shown the sender has not sent any weather packets the latest 1 day(s).
| Time | Temp. | Humidity | Pressure | Rain* | Wind** | Luminosity | Snow |
|---|---|---|---|---|---|---|---|
| 1836274282 | 16.67° C | 87% | 1020.7 hPa | 0 mm | 2.68 m/s, 180° | - | - |
| 1836274157 | 16.67° C | 87% | 1020.6 hPa | 0 mm | 3.13 m/s, 180° | - | - |
| 1778017545 | 10° C | 10% | - | 0 mm | 0.45 m/s, 0° | - | - |
| 1778016295 | 10° C | 10% | - | 0 mm | 0.45 m/s, 45° | - | - |
| 1778015046 | 10.56° C | 10% | - | 0 mm | 0 m/s | - | - |
| 1778013796 | 10.56° C | 10% | - | 0 mm | 0.45 m/s, 45° | - | - |
| 1778012546 | 10° C | 10% | - | 0 mm | 0.45 m/s, 0° | - | - |
| 1778011927 | 10° C | 10% | - | 0 mm | 1.34 m/s, 270° | - | - |
| 1778009422 | 10° C | 10% | - | 0.25 mm | 0 m/s | - | - |
| 1778008798 | 10° C | 10% | - | 0.25 mm | 0.45 m/s, 0° | - | - |
| 1778007548 | 10° C | 10% | - | 0.25 mm | 0.89 m/s, 90° | - | - |
| 1778006923 | 10° C | 10% | - | 0.25 mm | 1.79 m/s, 45° | - | - |
| 1778006298 | 10° C | 10% | - | 0 mm | 0.89 m/s, 45° | - | - |
| 1778005674 | 10.56° C | 10% | - | 7.87 mm | 0.89 m/s, 45° | - | - |
| 1778005049 | 10.56° C | 10% | - | 6.86 mm | 0.45 m/s, 45° | - | - |
| 1778004424 | 10.56° C | 10% | - | 5.59 mm | 0.45 m/s, 90° | - | - |
| 1778003799 | 10.56° C | 10% | - | 4.57 mm | 0.89 m/s, 90° | - | - |
| 1778003174 | 10.56° C | 10% | - | 2.79 mm | 1.79 m/s, 90° | - | - |
| 1778002550 | 11.11° C | 10% | - | 0 mm | 1.79 m/s, 45° | - | - |
| 1778001925 | 13.89° C | 10% | - | 0 mm | 0.89 m/s, 90° | - | - |
| 1778001300 | 14.44° C | 10% | - | 0 mm | 0.45 m/s, 45° | - | - |
| 1778000675 | 14.44° C | 10% | - | 0 mm | 0.45 m/s, 45° | - | - |
| 1778000050 | 14.44° C | 10% | - | 0 mm | 1.79 m/s, 135° | - | - |
| 1777999425 | 15° C | 10% | - | 0 mm | 0.45 m/s, 45° | - | - |
| 1777998801 | 15° C | 10% | - | 0 mm | 0.89 m/s, 45° | - | - |
* Rain latest hour (hover to see other rain measurements)
** Current wind speed in m/s (hover to see current wind gust speed)